Time;durP1;ratioP1;P1;durP2;ratioP2;P2;SDS_P1;SDS_P2;PMS_P1;PMS_P2;Temp;Humidity;BMP_temperature;BMP_pressure;BME280_temperature;BME280_humidity;BME280_pressure;Samples;Min_cycle;Max_cycle;Signal;HPM_P1;HPM_P2
2022/12/24 00:02:17;;;;;;;76.95;47.40;;;;;;;;;;5053625;28;20170;-79
2022/12/24 00:04:43;;;;;;;64.25;38.67;;;;;;;;;;5035832;28;20029;-79
2022/12/24 00:07:09;;;;;;;70.45;47.28;;;;;;;;;;5053348;28;20025;-80
2022/12/24 00:09:35;;;;;;;130.18;75.68;;;;;;;;;;5053708;28;20052;-80
2022/12/24 00:12:02;;;;;;;141.38;82.38;;;;;;;;;;5053342;28;20021;-80
2022/12/24 00:14:28;;;;;;;135.00;77.47;;;;;;;;;;5053462;28;20383;-77
2022/12/24 00:16:54;;;;;;;113.40;64.38;;;;;;;;;;5053350;28;20060;-77
2022/12/24 00:19:20;;;;;;;87.95;52.55;;;;;;;;;;5053170;28;20025;-78
2022/12/24 00:21:46;;;;;;;97.90;58.08;;;;;;;;;;5053271;28;20047;-78
2022/12/24 00:24:12;;;;;;;113.30;65.60;;;;;;;;;;5053127;28;20486;-78
2022/12/24 00:26:38;;;;;;;209.60;126.13;;;;;;;;;;5053157;28;20044;-78
2022/12/24 00:29:04;;;;;;;100.88;60.33;;;;;;;;;;5052467;28;20021;-77
2022/12/24 00:31:30;;;;;;;113.22;68.63;;;;;;;;;;5053057;28;20021;-78
2022/12/24 00:33:56;;;;;;;113.03;71.32;;;;;;;;;;5035461;28;20028;-78
2022/12/24 00:36:23;;;;;;;84.10;50.75;;;;;;;;;;5052830;28;20033;-78
2022/12/24 00:38:49;;;;;;;61.97;38.38;;;;;;;;;;5053167;28;20036;-78
2022/12/24 00:41:24;;;;;;;63.20;38.05;;;;;;;;;;5052653;28;20096;-78
2022/12/24 00:43:56;;;;;;;80.30;48.03;;;;;;;;;;5052920;28;20506;-78
2022/12/24 00:46:23;;;;;;;101.53;58.20;;;;;;;;;;5052715;28;20029;-78
2022/12/24 00:48:49;;;;;;;110.18;61.88;;;;;;;;;;5062280;28;20052;-78
2022/12/24 00:51:16;;;;;;;78.28;47.50;;;;;;;;;;5072543;28;20024;-78
2022/12/24 00:53:42;;;;;;;67.68;40.78;;;;;;;;;;5072664;28;20024;-78
2022/12/24 00:56:08;;;;;;;92.30;49.53;;;;;;;;;;5072322;28;20379;-78
2022/12/24 00:58:34;;;;;;;100.45;54.08;;;;;;;;;;5072580;28;20896;-78
2022/12/24 01:01:00;;;;;;;117.35;63.85;;;;;;;;;;5072508;28;20100;-78
2022/12/24 01:06:14;;;;;;;103.82;60.28;;;;;;;;;;5072308;28;20093;-77
2022/12/24 01:08:40;;;;;;;94.60;55.85;;;;;;;;;;5072500;28;20027;-77
2022/12/24 01:11:07;;;;;;;91.00;56.08;;;;;;;;;;5072224;28;20037;-78
2022/12/24 01:13:33;;;;;;;87.00;52.53;;;;;;;;;;5072548;28;20025;-77
2022/12/24 01:16:00;;;;;;;84.90;51.72;;;;;;;;;;5072202;28;20060;-77
2022/12/24 01:18:26;;;;;;;76.78;47.25;;;;;;;;;;5072420;28;20020;-78
2022/12/24 01:20:58;;;;;;;74.97;41.53;;;;;;;;;;5072186;28;20095;-77
2022/12/24 01:23:25;;;;;;;73.25;42.30;;;;;;;;;;5072377;28;20035;-78
2022/12/24 01:25:51;;;;;;;84.03;47.40;;;;;;;;;;5072062;28;20020;-77
2022/12/24 01:28:17;;;;;;;74.90;43.17;;;;;;;;;;5072309;28;20027;-77
2022/12/24 01:30:43;;;;;;;70.88;41.08;;;;;;;;;;5072471;28;20016;-77
2022/12/24 01:33:09;;;;;;;66.53;38.92;;;;;;;;;;5072079;28;20426;-78
2022/12/24 01:35:38;;;;;;;71.75;40.45;;;;;;;;;;5072239;28;20108;-78
2022/12/24 01:38:05;;;;;;;64.10;38.28;;;;;;;;;;5072170;28;20020;-77
2022/12/24 01:43:22;;;;;;;76.85;45.03;;;;;;;;;;5076571;28;20071;-77
2022/12/24 01:45:52;;;;;;;88.60;49.85;;;;;;;;;;5076102;28;20028;-77
2022/12/24 01:48:25;;;;;;;158.23;84.28;;;;;;;;;;5057998;28;20381;-77
2022/12/24 01:50:55;;;;;;;106.10;61.70;;;;;;;;;;5076232;28;20059;-77
2022/12/24 01:53:21;;;;;;;65.82;40.75;;;;;;;;;;5076085;28;20029;-78
2022/12/24 01:55:48;;;;;;;74.60;47.03;;;;;;;;;;5057983;28;20029;-78
2022/12/24 01:58:16;;;;;;;80.38;47.53;;;;;;;;;;5076044;28;20100;-78
2022/12/24 02:00:42;;;;;;;86.13;48.13;;;;;;;;;;5075953;28;20026;-78
2022/12/24 02:03:08;;;;;;;85.00;48.42;;;;;;;;;;5076128;28;20032;-78
2022/12/24 02:05:37;;;;;;;79.18;45.88;;;;;;;;;;5075916;28;20035;-78
2022/12/24 02:08:04;;;;;;;73.43;43.13;;;;;;;;;;5075816;28;20039;-78
2022/12/24 02:10:30;;;;;;;65.68;41.33;;;;;;;;;;5075502;28;20475;-77
2022/12/24 02:12:57;;;;;;;60.67;37.08;;;;;;;;;;5075700;28;20028;-77
2022/12/24 02:15:23;;;;;;;62.13;38.10;;;;;;;;;;5075340;28;20039;-77
2022/12/24 02:17:56;;;;;;;74.93;46.10;;;;;;;;;;5075521;28;20052;-77
2022/12/24 02:20:22;;;;;;;64.35;38.58;;;;;;;;;;5075435;28;20028;-77
2022/12/24 02:23:07;;;;;;;64.10;37.03;;;;;;;;;;5075543;28;20025;-77
2022/12/24 02:25:33;;;;;;;;;;;;;;;;;;5075863;28;20382;-77
2022/12/24 02:27:59;;;;;;;60.97;37.55;;;;;;;;;;5057636;28;19983;-77
2022/12/24 02:30:28;;;;;;;71.43;42.05;;;;;;;;;;5057231;28;20021;-77
2022/12/24 02:33:12;;;;;;;65.57;40.83;;;;;;;;;;5075401;28;20055;-77
2022/12/24 02:35:45;;;;;;;64.70;39.03;;;;;;;;;;5057237;28;20384;-77
2022/12/24 02:38:30;;;;;;;64.90;40.85;;;;;;;;;;5075189;28;20028;-77
2022/12/24 02:41:07;;;;;;;68.57;42.20;;;;;;;;;;5075157;28;20032;-77
2022/12/24 02:43:35;;;;;;;62.05;39.78;;;;;;;;;;5056993;28;20033;-77
2022/12/24 02:46:07;;;;;;;66.97;38.58;;;;;;;;;;5075094;28;20124;-77
2022/12/24 02:48:34;;;;;;;71.97;41.22;;;;;;;;;;5074634;28;20061;-77
2022/12/24 02:51:08;;;;;;;71.22;41.58;;;;;;;;;;5075085;28;20150;-77
2022/12/24 02:53:35;;;;;;;73.00;42.87;;;;;;;;;;5056002;28;20506;-77
2022/12/24 02:56:08;;;;;;;73.70;45.20;;;;;;;;;;5074841;28;20281;-77
2022/12/24 02:58:34;;;;;;;69.15;43.97;;;;;;;;;;5074716;28;20016;-78
2022/12/24 03:01:15;;;;;;;69.43;42.28;;;;;;;;;;5074781;28;20109;-77
2022/12/24 03:03:46;;;;;;;137.73;79.88;;;;;;;;;;5074768;28;20480;-77
2022/12/24 03:06:19;;;;;;;115.68;70.15;;;;;;;;;;5074456;28;20051;-77
2022/12/24 03:09:05;;;;;;;117.00;67.30;;;;;;;;;;5074618;28;20024;-77
2022/12/24 03:11:31;;;;;;;85.53;51.05;;;;;;;;;;5056519;28;20491;-77
2022/12/24 03:13:58;;;;;;;75.38;48.33;;;;;;;;;;5074286;28;20407;-77
2022/12/24 03:16:26;;;;;;;81.38;47.03;;;;;;;;;;5074359;28;20032;-77
2022/12/24 03:18:54;;;;;;;84.57;52.83;;;;;;;;;;5074253;28;20043;-77
2022/12/24 03:21:23;;;;;;;95.30;55.53;;;;;;;;;;5074474;28;20024;-77
2022/12/24 03:23:50;;;;;;;98.35;54.30;;;;;;;;;;5074054;28;20017;-77
2022/12/24 03:26:17;;;;;;;100.43;57.10;;;;;;;;;;5074355;28;20502;-77
2022/12/24 03:28:44;;;;;;;94.63;59.55;;;;;;;;;;5074203;28;20029;-77
2022/12/24 03:31:11;;;;;;;97.38;55.72;;;;;;;;;;5074461;28;20020;-77
2022/12/24 03:33:37;;;;;;;91.05;53.38;;;;;;;;;;5056063;28;20085;-78
2022/12/24 03:36:03;;;;;;;70.85;42.88;;;;;;;;;;5074047;28;20063;-77
2022/12/24 03:38:30;;;;;;;77.68;45.35;;;;;;;;;;5073948;28;20028;-77
2022/12/24 03:40:56;;;;;;;112.93;65.68;;;;;;;;;;5073761;28;20024;-77
2022/12/24 03:43:22;;;;;;;99.43;56.70;;;;;;;;;;5073899;28;20024;-77
2022/12/24 03:45:48;;;;;;;106.40;61.42;;;;;;;;;;5073617;28;20027;-77
2022/12/24 03:48:14;;;;;;;97.78;58.17;;;;;;;;;;5073629;28;20055;-77
2022/12/24 03:50:40;;;;;;;78.72;46.33;;;;;;;;;;5055620;28;20024;-77
2022/12/24 03:53:06;;;;;;;65.60;42.08;;;;;;;;;;5073629;28;20093;-77
2022/12/24 03:55:32;;;;;;;66.97;40.97;;;;;;;;;;5073560;28;20058;-77
2022/12/24 03:57:59;;;;;;;60.10;37.28;;;;;;;;;;5055465;28;20032;-77
2022/12/24 04:00:25;;;;;;;65.43;38.30;;;;;;;;;;5073560;28;20103;-77
2022/12/24 04:02:51;;;;;;;68.45;39.90;;;;;;;;;;5073273;28;20024;-77
2022/12/24 04:05:18;;;;;;;62.90;36.90;;;;;;;;;;5073301;28;20489;-77
2022/12/24 04:07:44;;;;;;;62.50;36.00;;;;;;;;;;5073284;28;20490;-77
2022/12/24 04:10:10;;;;;;;68.82;40.22;;;;;;;;;;5073275;28;20024;-77
2022/12/24 04:12:37;;;;;;;67.55;39.10;;;;;;;;;;5055266;28;20429;-77
2022/12/24 04:15:03;;;;;;;71.50;38.90;;;;;;;;;;5073003;28;20033;-76
2022/12/24 04:17:29;;;;;;;61.30;36.92;;;;;;;;;;5073140;28;20031;-77
2022/12/24 04:19:55;;;;;;;64.38;37.60;;;;;;;;;;5072905;28;20024;-77
2022/12/24 04:22:21;;;;;;;63.15;37.22;;;;;;;;;;5073183;28;20028;-77
2022/12/24 04:24:48;;;;;;;72.53;42.20;;;;;;;;;;5055059;28;20028;-77
2022/12/24 04:27:14;;;;;;;65.70;42.00;;;;;;;;;;5072987;28;20025;-77
2022/12/24 04:29:40;;;;;;;72.47;44.15;;;;;;;;;;5073086;28;20020;-77
2022/12/24 04:32:06;;;;;;;67.28;40.83;;;;;;;;;;5072753;28;20513;-77
2022/12/24 04:34:32;;;;;;;72.95;45.15;;;;;;;;;;5072921;28;20028;-77
2022/12/24 04:36:58;;;;;;;68.78;41.38;;;;;;;;;;5072693;28;20086;-77
2022/12/24 04:39:24;;;;;;;72.88;42.60;;;;;;;;;;5072594;28;20035;-77
2022/12/24 04:41:50;;;;;;;101.28;60.95;;;;;;;;;;5072601;28;20059;-77
2022/12/24 04:44:16;;;;;;;116.85;68.53;;;;;;;;;;5072467;28;20035;-77
2022/12/24 04:46:43;;;;;;;65.35;40.58;;;;;;;;;;5072728;28;20597;-77
2022/12/24 04:49:09;;;;;;;62.72;36.67;;;;;;;;;;5054389;28;20045;-77
2022/12/24 04:51:35;;;;;;;70.82;41.03;;;;;;;;;;5072717;28;20479;-77
2022/12/24 04:54:01;;;;;;;65.18;39.15;;;;;;;;;;5072637;28;20387;-77
2022/12/24 04:56:28;;;;;;;66.28;40.35;;;;;;;;;;5092708;28;20036;-77
2022/12/24 04:58:55;;;;;;;63.65;39.30;;;;;;;;;;5090269;28;20024;-77
2022/12/24 05:01:25;;;;;;;66.25;40.40;;;;;;;;;;5092680;28;20024;-77
2022/12/24 05:03:51;;;;;;;78.43;44.20;;;;;;;;;;5077324;28;20032;-77
2022/12/24 05:06:19;;;;;;;86.53;51.08;;;;;;;;;;5072161;28;20052;-77
2022/12/24 05:08:46;;;;;;;86.18;54.13;;;;;;;;;;5072414;28;20025;-77
2022/12/24 05:11:15;;;;;;;83.70;51.72;;;;;;;;;;5071087;28;20028;-78
2022/12/24 05:13:42;;;;;;;75.30;48.65;;;;;;;;;;5072370;28;20033;-77
2022/12/24 05:16:09;;;;;;;86.30;50.15;;;;;;;;;;5071703;28;20562;-77
2022/12/24 05:18:35;;;;;;;71.82;41.90;;;;;;;;;;5072131;28;20141;-77
2022/12/24 05:21:02;;;;;;;76.70;45.25;;;;;;;;;;5072305;28;20021;-77
2022/12/24 05:26:22;;;;;;;;;;;;;;;;;;5072834;28;20055;-77
2022/12/24 05:28:52;;;;;;;99.97;60.33;;;;;;;;;;5071991;28;19958;-77
2022/12/24 05:31:18;;;;;;;104.43;56.38;;;;;;;;;;5072262;28;20056;-77
2022/12/24 05:33:45;;;;;;;66.72;39.38;;;;;;;;;;5072001;28;20020;-77
2022/12/24 05:36:11;;;;;;;70.47;42.25;;;;;;;;;;5072325;28;20024;-77
2022/12/24 05:38:37;;;;;;;68.22;43.00;;;;;;;;;;5071692;28;20029;-78
2022/12/24 05:41:03;;;;;;;68.00;43.33;;;;;;;;;;5054021;28;20383;-77
2022/12/24 05:43:30;;;;;;;74.38;44.38;;;;;;;;;;5053693;28;20028;-77
2022/12/24 05:45:59;;;;;;;84.05;48.97;;;;;;;;;;5071937;28;20025;-77
2022/12/24 05:48:25;;;;;;;84.35;49.55;;;;;;;;;;5071829;28;20502;-77
2022/12/24 05:50:51;;;;;;;69.65;44.55;;;;;;;;;;5071134;28;20024;-78
2022/12/24 05:53:18;;;;;;;70.65;44.20;;;;;;;;;;5071768;28;20028;-78
2022/12/24 05:55:44;;;;;;;73.65;43.75;;;;;;;;;;5071765;28;20490;-78
2022/12/24 05:58:10;;;;;;;73.03;44.78;;;;;;;;;;5072042;28;20024;-78
2022/12/24 06:00:36;;;;;;;77.15;50.25;;;;;;;;;;5072090;28;20074;-78
2022/12/24 06:03:02;;;;;;;87.28;57.55;;;;;;;;;;5071848;28;20024;-78
2022/12/24 06:05:28;;;;;;;80.60;54.92;;;;;;;;;;5071983;28;20031;-78
2022/12/24 06:07:54;;;;;;;108.63;64.68;;;;;;;;;;5071637;28;20467;-78
2022/12/24 06:10:20;;;;;;;107.40;64.10;;;;;;;;;;5071950;28;20028;-78
2022/12/24 06:12:46;;;;;;;118.68;70.18;;;;;;;;;;5071818;28;20078;-78
2022/12/24 06:15:12;;;;;;;129.38;78.07;;;;;;;;;;5071658;28;20103;-78
2022/12/24 06:17:39;;;;;;;91.47;58.58;;;;;;;;;;5071801;28;20383;-78
2022/12/24 06:20:05;;;;;;;76.38;49.08;;;;;;;;;;5071654;28;20075;-78
2022/12/24 06:22:31;;;;;;;67.18;41.50;;;;;;;;;;5071785;28;20028;-78
2022/12/24 06:24:57;;;;;;;65.28;41.15;;;;;;;;;;5053748;28;20020;-78
2022/12/24 06:27:23;;;;;;;66.40;39.53;;;;;;;;;;5072884;28;20020;-78
2022/12/24 06:29:50;;;;;;;61.10;37.40;;;;;;;;;;5077104;28;20025;-78
2022/12/24 06:32:16;;;;;;;61.85;36.35;;;;;;;;;;5076063;28;20498;-78
2022/12/24 06:34:42;;;;;;;59.58;37.40;;;;;;;;;;5075153;28;20097;-78
2022/12/24 06:37:17;;;;;;;59.13;36.45;;;;;;;;;;5072756;28;20076;-78
2022/12/24 06:39:43;;;;;;;109.22;63.45;;;;;;;;;;5072917;28;20380;-77
2022/12/24 06:42:09;;;;;;;74.00;45.70;;;;;;;;;;5084900;28;20052;-78
2022/12/24 06:44:35;;;;;;;59.00;36.60;;;;;;;;;;5088562;28;20025;-76
2022/12/24 06:47:01;;;;;;;58.90;36.47;;;;;;;;;;5074103;28;20113;-78
2022/12/24 06:49:27;;;;;;;54.38;35.75;;;;;;;;;;5074921;28;20056;-77
2022/12/24 06:51:53;;;;;;;62.47;36.47;;;;;;;;;;5056312;28;20535;-77
2022/12/24 06:54:19;;;;;;;62.92;38.35;;;;;;;;;;5057615;28;20119;-77
2022/12/24 06:56:45;;;;;;;54.80;35.70;;;;;;;;;;5074902;28;20472;-80
2022/12/24 06:59:11;;;;;;;55.88;36.85;;;;;;;;;;5069388;28;20063;-79
2022/12/24 07:01:37;;;;;;;51.60;34.45;;;;;;;;;;5074301;28;20020;-79
2022/12/24 07:04:03;;;;;;;55.90;36.47;;;;;;;;;;5073051;28;20043;-78
2022/12/24 07:06:30;;;;;;;63.28;36.22;;;;;;;;;;5073735;28;20032;-77
2022/12/24 07:08:56;;;;;;;62.00;39.03;;;;;;;;;;5078548;28;20487;-79
2022/12/24 07:11:23;;;;;;;57.97;37.28;;;;;;;;;;5075323;28;20025;-80
2022/12/24 07:13:49;;;;;;;61.50;37.00;;;;;;;;;;5074013;28;20040;-78
2022/12/24 07:16:15;;;;;;;52.28;34.38;;;;;;;;;;5084768;28;20145;-76
2022/12/24 07:18:41;;;;;;;56.63;35.67;;;;;;;;;;5073723;28;20365;-77
2022/12/24 07:21:07;;;;;;;51.65;31.95;;;;;;;;;;5073945;28;20109;-79
2022/12/24 07:23:34;;;;;;;58.53;37.03;;;;;;;;;;5073912;28;20606;-79
2022/12/24 07:26:01;;;;;;;56.63;36.13;;;;;;;;;;5074329;28;20032;-80
2022/12/24 07:28:28;;;;;;;56.13;37.33;;;;;;;;;;5073273;28;20032;-77
2022/12/24 07:30:54;;;;;;;68.20;46.55;;;;;;;;;;5073983;28;20024;-80
2022/12/24 07:33:20;;;;;;;81.47;51.75;;;;;;;;;;5073670;28;20095;-78
2022/12/24 07:35:46;;;;;;;87.65;55.83;;;;;;;;;;5073827;28;20033;-79
2022/12/24 07:38:12;;;;;;;84.60;56.00;;;;;;;;;;5073017;28;20048;-80
2022/12/24 07:40:38;;;;;;;90.38;56.08;;;;;;;;;;5073754;28;20395;-79
2022/12/24 07:43:04;;;;;;;98.85;65.40;;;;;;;;;;5073283;28;20035;-79
2022/12/24 07:45:31;;;;;;;90.25;60.13;;;;;;;;;;5073502;28;20028;-78
2022/12/24 07:47:57;;;;;;;91.47;52.08;;;;;;;;;;5070186;28;20475;-79
2022/12/24 07:50:23;;;;;;;104.18;61.50;;;;;;;;;;5053136;28;20391;-79
2022/12/24 07:52:49;;;;;;;110.32;59.60;;;;;;;;;;5052997;28;20048;-81
2022/12/24 07:55:15;;;;;;;101.97;60.35;;;;;;;;;;5053366;28;20053;-78
2022/12/24 07:57:41;;;;;;;91.40;58.60;;;;;;;;;;5052695;28;20033;-79
2022/12/24 08:00:07;;;;;;;86.78;57.17;;;;;;;;;;5053870;28;20053;-79
2022/12/24 08:02:35;;;;;;;130.00;78.55;;;;;;;;;;5053394;28;20067;-77
2022/12/24 08:05:01;;;;;;;111.20;68.63;;;;;;;;;;5035300;28;20498;-79
2022/12/24 08:07:27;;;;;;;100.32;72.50;;;;;;;;;;5053144;28;20051;-81
2022/12/24 08:09:53;;;;;;;113.43;75.47;;;;;;;;;;5057155;28;20071;-80
2022/12/24 08:12:19;;;;;;;119.43;80.80;;;;;;;;;;5052046;28;20486;-79
2022/12/24 08:14:45;;;;;;;129.60;86.03;;;;;;;;;;5060887;28;20032;-80
2022/12/24 08:17:11;;;;;;;118.32;79.15;;;;;;;;;;5064191;28;20041;-79
2022/12/24 08:19:37;;;;;;;133.30;89.10;;;;;;;;;;5051942;28;20523;-79
2022/12/24 08:22:03;;;;;;;159.18;103.10;;;;;;;;;;5052030;28;20464;-79
2022/12/24 08:24:29;;;;;;;131.98;86.00;;;;;;;;;;5051318;28;20025;-81
2022/12/24 08:26:55;;;;;;;142.05;89.78;;;;;;;;;;5051877;28;20017;-81
2022/12/24 08:29:21;;;;;;;150.65;98.30;;;;;;;;;;5052988;28;20021;-78
2022/12/24 08:31:48;;;;;;;139.55;89.00;;;;;;;;;;5052233;28;20040;-78
2022/12/24 08:34:14;;;;;;;130.77;85.22;;;;;;;;;;5052719;28;20029;-79
2022/12/24 08:36:40;;;;;;;105.63;70.50;;;;;;;;;;5052107;28;20491;-79
2022/12/24 08:39:07;;;;;;;113.35;75.70;;;;;;;;;;5034763;28;20072;-78
2022/12/24 08:41:34;;;;;;;116.47;73.50;;;;;;;;;;5052347;28;20103;-78
2022/12/24 08:44:00;;;;;;;107.60;67.95;;;;;;;;;;5034620;28;20035;-81
2022/12/24 08:46:26;;;;;;;107.35;68.78;;;;;;;;;;5034656;28;20028;-81
2022/12/24 08:48:52;;;;;;;97.88;61.38;;;;;;;;;;5055916;28;20053;-81
2022/12/24 08:51:19;;;;;;;91.00;58.78;;;;;;;;;;5059124;28;20082;-81
2022/12/24 08:53:45;;;;;;;95.85;61.67;;;;;;;;;;5060255;28;20052;-81
2022/12/24 08:56:12;;;;;;;94.93;60.25;;;;;;;;;;5066461;28;20040;-81
2022/12/24 08:58:38;;;;;;;89.53;59.25;;;;;;;;;;5057526;28;20033;-81
2022/12/24 09:01:23;;;;;;;85.38;56.28;;;;;;;;;;5052266;28;20033;-81
2022/12/24 09:03:49;;;;;;;77.10;49.03;;;;;;;;;;5052544;28;20056;-81
2022/12/24 09:06:15;;;;;;;78.15;50.00;;;;;;;;;;5050940;28;20103;-81
2022/12/24 09:08:41;;;;;;;78.70;50.97;;;;;;;;;;5052270;28;20025;-80
2022/12/24 09:11:12;;;;;;;71.95;47.53;;;;;;;;;;5051067;28;20037;-80
2022/12/24 09:13:39;;;;;;;81.22;51.85;;;;;;;;;;5052206;28;20057;-80
2022/12/24 09:16:06;;;;;;;87.30;50.72;;;;;;;;;;5052266;28;20037;-81
2022/12/24 09:18:32;;;;;;;85.97;53.58;;;;;;;;;;5050667;28;20424;-81
2022/12/24 09:21:02;;;;;;;91.05;62.40;;;;;;;;;;5052184;28;20025;-81
2022/12/24 09:23:28;;;;;;;74.47;52.60;;;;;;;;;;5052066;28;20036;-81
2022/12/24 09:25:54;;;;;;;78.78;50.08;;;;;;;;;;5052077;28;20396;-81
2022/12/24 09:28:20;;;;;;;71.03;49.92;;;;;;;;;;5052119;28;20154;-81
2022/12/24 09:30:54;;;;;;;71.47;50.83;;;;;;;;;;5051887;28;20021;-81
2022/12/24 09:33:20;;;;;;;56.95;38.90;;;;;;;;;;5051915;28;20025;-82
2022/12/24 09:35:46;;;;;;;64.93;44.20;;;;;;;;;;5051953;28;20116;-82
2022/12/24 09:38:12;;;;;;;69.85;47.42;;;;;;;;;;5051929;28;20021;-82
2022/12/24 09:40:39;;;;;;;72.03;48.72;;;;;;;;;;5051996;28;20017;-81
2022/12/24 09:43:11;;;;;;;76.68;51.30;;;;;;;;;;5051862;28;20368;-81
2022/12/24 09:45:39;;;;;;;70.97;50.58;;;;;;;;;;5051837;28;20100;-81
2022/12/24 09:48:26;;;;;;;79.05;51.38;;;;;;;;;;5055718;28;20067;-82
2022/12/24 09:50:59;;;;;;;82.13;53.35;;;;;;;;;;5079208;28;20024;-83
2022/12/24 09:53:35;;;;;;;85.13;58.75;;;;;;;;;;5069555;28;20024;-82
2022/12/24 09:56:04;;;;;;;86.00;59.05;;;;;;;;;;5080714;28;20381;-82
2022/12/24 09:58:34;;;;;;;78.85;55.53;;;;;;;;;;5058838;28;20035;-82
2022/12/24 10:01:00;;;;;;;85.32;58.47;;;;;;;;;;5053820;28;20077;-81
2022/12/24 10:03:26;;;;;;;77.20;54.10;;;;;;;;;;5074533;28;20021;-81
2022/12/24 10:05:58;;;;;;;72.22;49.50;;;;;;;;;;5079327;28;20024;-81
2022/12/24 10:08:57;;;;;;;75.47;49.67;;;;;;;;;;5074162;28;20069;-84
2022/12/24 10:11:42;;;;;;;78.57;50.17;;;;;;;;;;4994573;28;20399;-85
2022/12/24 10:14:27;;;;;;;73.97;49.55;;;;;;;;;;5045833;28;20116;-81
2022/12/24 10:16:55;;;;;;;84.85;50.58;;;;;;;;;;5069908;28;20475;-80
2022/12/24 10:19:22;;;;;;;81.32;53.58;;;;;;;;;;5074200;28;20099;-81
2022/12/24 10:21:48;;;;;;;78.22;51.67;;;;;;;;;;5054277;28;20044;-84
2022/12/24 10:24:26;;;;;;;80.10;53.35;;;;;;;;;;5057474;28;20090;-78
2022/12/24 10:27:10;;;;;;;94.45;60.17;;;;;;;;;;5074059;28;20028;-83
2022/12/24 10:29:38;;;;;;;85.57;56.45;;;;;;;;;;5074252;28;20152;-85
2022/12/24 10:32:07;;;;;;;74.43;47.95;;;;;;;;;;5075131;28;20025;-83
2022/12/24 10:34:39;;;;;;;68.68;47.85;;;;;;;;;;5056777;28;20506;-82
2022/12/24 10:37:06;;;;;;;68.63;48.42;;;;;;;;;;5081094;28;20498;-83
2022/12/24 10:39:32;;;;;;;76.80;50.83;;;;;;;;;;5079638;28;20078;-81
2022/12/24 10:42:00;;;;;;;69.53;46.85;;;;;;;;;;5079920;28;20031;-83
2022/12/24 10:44:27;;;;;;;74.95;49.92;;;;;;;;;;5095018;28;20051;-82
2022/12/24 10:46:54;;;;;;;68.25;46.13;;;;;;;;;;5077817;28;20429;-79
2022/12/24 10:49:29;;;;;;;73.97;50.10;;;;;;;;;;5076251;28;20510;-82
2022/12/24 10:52:04;;;;;;;77.32;54.13;;;;;;;;;;5051492;28;20029;-81
2022/12/24 10:54:37;;;;;;;77.05;50.35;;;;;;;;;;5054442;28;20025;-82
2022/12/24 10:57:04;;;;;;;66.55;45.45;;;;;;;;;;5086610;28;20035;-81
2022/12/24 10:59:33;;;;;;;69.22;46.88;;;;;;;;;;5059350;28;20024;-80
2022/12/24 11:02:00;;;;;;;70.35;45.10;;;;;;;;;;5074086;28;20086;-82
2022/12/24 11:04:28;;;;;;;71.18;46.28;;;;;;;;;;5074077;28;20021;-81
2022/12/24 11:07:04;;;;;;;61.45;43.08;;;;;;;;;;5073984;28;20071;-81
2022/12/24 11:09:35;;;;;;;59.20;40.75;;;;;;;;;;5073974;28;20560;-81
2022/12/24 11:12:03;;;;;;;61.17;41.85;;;;;;;;;;5073515;28;20496;-81
2022/12/24 11:14:34;;;;;;;60.13;41.80;;;;;;;;;;5057409;28;20413;-81
2022/12/24 11:17:00;;;;;;;63.25;43.17;;;;;;;;;;5094413;28;20119;-82
2022/12/24 11:19:31;;;;;;;61.38;42.33;;;;;;;;;;5084648;28;20032;-82
2022/12/24 11:21:58;;;;;;;55.28;40.13;;;;;;;;;;5074074;28;20031;-81
2022/12/24 11:24:27;;;;;;;55.65;40.15;;;;;;;;;;5073776;28;20028;-82
2022/12/24 11:26:53;;;;;;;51.40;38.45;;;;;;;;;;5073935;28;20025;-82
2022/12/24 11:29:38;;;;;;;51.55;35.92;;;;;;;;;;5055920;28;20176;-82
2022/12/24 11:32:16;;;;;;;46.70;33.35;;;;;;;;;;5087619;28;20110;-81
2022/12/24 11:34:45;;;;;;;49.55;34.63;;;;;;;;;;5092354;28;20028;-82
2022/12/24 11:37:16;;;;;;;50.63;36.00;;;;;;;;;;5061557;28;20036;-81
2022/12/24 11:39:45;;;;;;;48.00;32.63;;;;;;;;;;5079703;28;20501;-81
2022/12/24 11:42:30;;;;;;;48.10;33.90;;;;;;;;;;5085203;28;20091;-82
2022/12/24 11:44:59;;;;;;;;;;;;;;;;;;5078347;28;20024;-82
2022/12/24 11:47:45;;;;;;;50.17;33.70;;;;;;;;;;5084952;28;20411;-82
2022/12/24 11:50:36;;;;;;;56.13;38.05;;;;;;;;;;5071945;28;20429;-83
2022/12/24 11:53:02;;;;;;;67.65;44.22;;;;;;;;;;5071958;28;20058;-82
2022/12/24 11:55:37;;;;;;;65.10;45.45;;;;;;;;;;5074601;28;20456;-82
2022/12/24 11:58:22;;;;;;;71.80;49.40;;;;;;;;;;5093780;28;20028;-83
2022/12/24 12:00:48;;;;;;;;;;;;;;;;;;5055302;28;20067;-82
2022/12/24 12:03:29;;;;;;;69.78;47.33;;;;;;;;;;5079395;28;19955;-83
2022/12/24 12:05:55;;;;;;;66.55;46.45;;;;;;;;;;5093708;28;20038;-82
2022/12/24 12:08:22;;;;;;;65.97;47.42;;;;;;;;;;5085902;28;20036;-82
2022/12/24 12:10:49;;;;;;;64.28;46.05;;;;;;;;;;5072257;28;20497;-81
2022/12/24 12:13:17;;;;;;;65.07;46.85;;;;;;;;;;5054134;28;20059;-83
2022/12/24 12:15:44;;;;;;;72.05;48.53;;;;;;;;;;5073137;28;20430;-83
2022/12/24 12:18:15;;;;;;;70.00;46.80;;;;;;;;;;5072489;28;20017;-82
2022/12/24 12:20:46;;;;;;;65.45;45.85;;;;;;;;;;5072957;28;20036;-82
2022/12/24 12:23:12;;;;;;;66.80;48.05;;;;;;;;;;5071706;28;20391;-83
2022/12/24 12:25:54;;;;;;;72.70;49.60;;;;;;;;;;5052980;28;20020;-83
2022/12/24 12:28:38;;;;;;;68.72;45.25;;;;;;;;;;5050380;28;20074;-83
2022/12/24 12:31:23;;;;;;;70.75;50.63;;;;;;;;;;5053898;28;20037;-83
2022/12/24 12:33:49;;;;;;;;;;;;;;;;;;5055316;28;20029;-83
2022/12/24 12:36:18;;;;;;;73.88;48.50;;;;;;;;;;5053679;28;19922;-83
2022/12/24 12:38:44;;;;;;;67.75;47.78;;;;;;;;;;5072467;28;20085;-83
2022/12/24 12:41:10;;;;;;;66.65;47.08;;;;;;;;;;5077078;28;20017;-83
2022/12/24 12:43:39;;;;;;;71.43;47.30;;;;;;;;;;5072230;28;20029;-83
2022/12/24 12:46:20;;;;;;;66.32;45.67;;;;;;;;;;5071161;28;20379;-83
2022/12/24 12:48:56;;;;;;;67.30;47.97;;;;;;;;;;5060013;28;20097;-82
2022/12/24 12:51:28;;;;;;;68.40;49.28;;;;;;;;;;5069316;28;20031;-82
2022/12/24 12:53:54;;;;;;;67.97;47.47;;;;;;;;;;5084103;28;20384;-82
2022/12/24 12:56:39;;;;;;;66.13;42.85;;;;;;;;;;5070533;28;20064;-83
2022/12/24 12:59:04;;;;;;;;;;;;;;;;;;5072856;28;20024;-82
2022/12/24 13:01:46;;;;;;;69.85;48.55;;;;;;;;;;5072380;28;20244;-82
2022/12/24 13:04:21;;;;;;;61.70;42.95;;;;;;;;;;5073008;28;20033;-82
2022/12/24 13:06:50;;;;;;;66.93;44.85;;;;;;;;;;5070444;28;20024;-83
2022/12/24 13:09:35;;;;;;;73.75;49.88;;;;;;;;;;5070903;28;20051;-83
2022/12/24 13:12:19;;;;;;;77.32;51.35;;;;;;;;;;5072227;28;20029;-82
2022/12/24 13:15:09;;;;;;;68.53;49.28;;;;;;;;;;5070933;28;20037;-83
2022/12/24 13:17:42;;;;;;;69.07;49.15;;;;;;;;;;5066172;28;20042;-83
2022/12/24 13:20:14;;;;;;;68.45;46.95;;;;;;;;;;5050150;28;20025;-83
2022/12/24 13:22:46;;;;;;;70.50;48.75;;;;;;;;;;5068687;28;20441;-82
2022/12/24 13:25:31;;;;;;;69.78;50.50;;;;;;;;;;5051816;28;20037;-82
2022/12/24 13:27:57;;;;;;;;;;;;;;;;;;5044410;28;20013;-82
2022/12/24 13:30:34;;;;;;;72.63;48.05;;;;;;;;;;5052600;28;20368;-83
2022/12/24 13:33:01;;;;;;;76.05;49.95;;;;;;;;;;5067228;28;20023;-82
2022/12/24 13:35:28;;;;;;;70.85;48.85;;;;;;;;;;5070123;28;20097;-82
2022/12/24 13:38:14;;;;;;;72.68;49.95;;;;;;;;;;5075481;28;20130;-81
2022/12/24 13:40:40;;;;;;;84.93;52.35;;;;;;;;;;5074935;28;20054;-84
2022/12/24 13:43:09;;;;;;;79.97;55.42;;;;;;;;;;5076011;28;20032;-85
2022/12/24 13:45:38;;;;;;;76.35;54.65;;;;;;;;;;5057746;28;20024;-85
2022/12/24 13:48:09;;;;;;;74.03;52.10;;;;;;;;;;5075763;28;20048;-82
2022/12/24 13:50:52;;;;;;;79.00;53.58;;;;;;;;;;5074839;28;20166;-84
2022/12/24 13:53:28;;;;;;;88.63;59.47;;;;;;;;;;5074959;28;20024;-81
2022/12/24 13:55:54;;;;;;;78.72;56.05;;;;;;;;;;5075759;28;20024;-81
2022/12/24 13:58:20;;;;;;;83.03;56.72;;;;;;;;;;5075922;28;20024;-81
2022/12/24 14:00:58;;;;;;;87.25;62.47;;;;;;;;;;5075862;28;20020;-81
2022/12/24 14:03:27;;;;;;;82.10;57.90;;;;;;;;;;5063534;28;20467;-81
2022/12/24 14:05:56;;;;;;;83.00;58.30;;;;;;;;;;5034782;28;20029;-81
2022/12/24 14:08:22;;;;;;;82.97;56.15;;;;;;;;;;5035642;28;20033;-81
2022/12/24 14:11:15;;;;;;;87.05;63.50;;;;;;;;;;5034496;28;20037;-80
2022/12/24 14:13:41;;;;;;;86.75;59.42;;;;;;;;;;5032942;28;20041;-81
2022/12/24 14:16:26;;;;;;;84.88;56.45;;;;;;;;;;5035451;28;20025;-81
2022/12/24 14:18:58;;;;;;;99.95;67.50;;;;;;;;;;5034415;28;20167;-81
2022/12/24 14:21:43;;;;;;;92.85;64.13;;;;;;;;;;5035706;28;20029;-81
2022/12/24 14:24:09;;;;;;;;;;;;;;;;;;5036060;28;20021;-81
2022/12/24 14:26:36;;;;;;;140.98;94.22;;;;;;;;;;5035571;28;19905;-81
2022/12/24 14:29:07;;;;;;;143.55;106.00;;;;;;;;;;5035670;28;20033;-81
2022/12/24 14:31:33;;;;;;;140.57;102.60;;;;;;;;;;5034174;28;20036;-81
2022/12/24 14:34:06;;;;;;;155.32;110.85;;;;;;;;;;5035534;28;20104;-81
2022/12/24 14:36:32;;;;;;;212.63;145.93;;;;;;;;;;5035347;28;20567;-81
2022/12/24 14:38:59;;;;;;;218.00;152.98;;;;;;;;;;5035463;28;20061;-82